TGW510 WSSS-VVDN
Flight info
| Callsign | TGW510 |
|---|---|
| Flight time | 2h 15m |
| Altitude | 35000 |
| Route | VMR6A VMR M771 DUDIS/K0850F340 L644 CN/K0850F350 L644 AC/K0782F270 W1 BMT Q1 SADIN SADIN2K |
| Aircraft | A21N/M-SDE2FGHIJ3J7RWYZ/LB1D1 |
Departure
| Time | 2026-05-04 12:06 |
|---|---|
| Airport | Singapore Changi Airport (WSSS) |
Arrival
| Time | 2026-05-04 14:22 |
|---|---|
| Airport | Da Nang International Airport (VVDN) |
| Time | Latitude | Longitude | Altitude | Speed | Heading |
|---|---|---|---|---|---|
| 2026-05-04 12:03 | 1.33993 | 103.98768 | 28 ft | 14 kts | 188° |
| 2026-05-04 12:03 | 1.33903 | 103.98739 | 28 ft | 14 kts | 204° |
| 2026-05-04 12:03 | 1.33791 | 103.98690 | 28 ft | 20 kts | 205° |
| 2026-05-04 12:04 | 1.33646 | 103.98631 | 28 ft | 24 kts | 208° |
| 2026-05-04 12:04 | 1.33526 | 103.98589 | 28 ft | 10 kts | 176° |
| 2026-05-04 12:04 | 1.33489 | 103.98601 | 28 ft | 6 kts | 144° |
| 2026-05-04 12:04 | 1.33448 | 103.98646 | 28 ft | 6 kts | 107° |
| 2026-05-04 12:05 | 1.33438 | 103.98711 | 28 ft | 11 kts | 86° |
| 2026-05-04 12:05 | 1.33497 | 103.98760 | 28 ft | 11 kts | 25° |
| 2026-05-04 12:05 | 1.33629 | 103.98816 | 28 ft | 34 kts | 23° |
| 2026-05-04 12:05 | 1.34014 | 103.98979 | 28 ft | 90 kts | 23° |
| 2026-05-04 12:06 | 1.34809 | 103.99317 | 29 ft | 153 kts | 21° |
| 2026-05-04 12:06 | 1.35963 | 103.99791 | 133 ft | 195 kts | 21° |
| 2026-05-04 12:06 | 1.37217 | 104.00311 | 941 ft | 189 kts | 21° |
| 2026-05-04 12:06 | 1.38413 | 104.00771 | 1815 ft | 180 kts | 22° |
| 2026-05-04 12:07 | 1.39543 | 104.01263 | 2483 ft | 180 kts | 24° |
| 2026-05-04 12:07 | 1.40722 | 104.01802 | 2889 ft | 197 kts | 24° |
| 2026-05-04 12:07 | 1.42068 | 104.02361 | 3317 ft | 216 kts | 22° |
| 2026-05-04 12:07 | 1.43500 | 104.02956 | 3805 ft | 232 kts | 24° |
| 2026-05-04 12:08 | 1.45056 | 104.03631 | 4281 ft | 250 kts | 23° |
| 2026-05-04 12:08 | 1.46688 | 104.04336 | 4837 ft | 264 kts | 23° |
| 2026-05-04 12:08 | 1.48441 | 104.05003 | 5541 ft | 271 kts | 10° |
| 2026-05-04 12:08 | 1.50307 | 104.04882 | 6364 ft | 273 kts | 341° |
| 2026-05-04 12:09 | 1.52030 | 104.04098 | 7077 ft | 278 kts | 333° |
| 2026-05-04 12:09 | 1.53734 | 104.03160 | 7781 ft | 283 kts | 331° |
| 2026-05-04 12:09 | 1.55452 | 104.02184 | 8544 ft | 285 kts | 331° |
| 2026-05-04 12:09 | 1.57193 | 104.01211 | 9217 ft | 288 kts | 331° |
| 2026-05-04 12:10 | 1.58965 | 104.00235 | 9839 ft | 293 kts | 332° |
| 2026-05-04 12:10 | 1.60787 | 103.99240 | 10417 ft | 299 kts | 332° |
| 2026-05-04 12:10 | 1.62667 | 103.98221 | 10724 ft | 315 kts | 332° |
| 2026-05-04 12:10 | 1.64643 | 103.97154 | 11010 ft | 331 kts | 332° |
| 2026-05-04 12:11 | 1.66745 | 103.96020 | 11291 ft | 346 kts | 332° |
| 2026-05-04 12:11 | 1.68925 | 103.94844 | 11640 ft | 358 kts | 332° |
| 2026-05-04 12:11 | 1.71145 | 103.93645 | 12207 ft | 362 kts | 332° |
| 2026-05-04 12:11 | 1.73368 | 103.92463 | 12792 ft | 365 kts | 335° |
| 2026-05-04 12:12 | 1.75776 | 103.91540 | 13343 ft | 368 kts | 345° |
| 2026-05-04 12:12 | 1.78308 | 103.91037 | 13895 ft | 369 kts | 355° |
| 2026-05-04 12:12 | 1.80916 | 103.90825 | 14454 ft | 372 kts | 358° |
| 2026-05-04 12:12 | 1.83546 | 103.90669 | 14981 ft | 375 kts | 358° |
| 2026-05-04 12:13 | 1.86215 | 103.90517 | 15499 ft | 378 kts | 358° |
| 2026-05-04 12:14 | 2.05109 | 103.89347 | 18732 ft | 396 kts | 358° |
| 2026-05-04 12:15 | 2.07877 | 103.89171 | 19140 ft | 399 kts | 358° |
| 2026-05-04 12:15 | 2.10664 | 103.88995 | 19539 ft | 402 kts | 358° |
| 2026-05-04 12:15 | 2.13507 | 103.88814 | 19931 ft | 404 kts | 358° |
| 2026-05-04 12:15 | 2.16361 | 103.88705 | 20282 ft | 406 kts | 5° |
| 2026-05-04 12:16 | 2.19081 | 103.89363 | 20605 ft | 404 kts | 24° |
| 2026-05-04 12:16 | 2.21660 | 103.90549 | 21035 ft | 404 kts | 28° |
| 2026-05-04 12:16 | 2.24189 | 103.91794 | 21364 ft | 407 kts | 28° |
| 2026-05-04 12:16 | 2.26744 | 103.93035 | 21709 ft | 410 kts | 27° |
| 2026-05-04 12:17 | 2.29374 | 103.94280 | 22029 ft | 414 kts | 27° |
| 2026-05-04 12:17 | 2.32027 | 103.95511 | 22363 ft | 417 kts | 26° |
| 2026-05-04 12:17 | 2.34681 | 103.96725 | 22709 ft | 419 kts | 26° |
| 2026-05-04 12:17 | 2.37341 | 103.97934 | 23056 ft | 421 kts | 26° |
| 2026-05-04 12:18 | 2.40034 | 103.99152 | 23412 ft | 422 kts | 26° |
| 2026-05-04 12:18 | 2.42715 | 104.00362 | 23753 ft | 424 kts | 26° |
| 2026-05-04 12:18 | 2.45424 | 104.01582 | 24075 ft | 426 kts | 26° |
| 2026-05-04 12:18 | 2.48170 | 104.02818 | 24386 ft | 429 kts | 26° |
| 2026-05-04 12:19 | 2.50901 | 104.04047 | 24691 ft | 431 kts | 26° |
| 2026-05-04 12:19 | 2.53648 | 104.05283 | 24991 ft | 432 kts | 26° |
| 2026-05-04 12:19 | 2.56409 | 104.06525 | 25281 ft | 434 kts | 26° |
| 2026-05-04 12:19 | 2.59178 | 104.07772 | 25551 ft | 437 kts | 26° |
| 2026-05-04 12:20 | 2.61974 | 104.09031 | 25822 ft | 439 kts | 26° |
| 2026-05-04 12:20 | 2.64780 | 104.10293 | 26091 ft | 441 kts | 26° |
| 2026-05-04 12:20 | 2.67557 | 104.11543 | 26343 ft | 442 kts | 26° |
| 2026-05-04 12:20 | 2.70409 | 104.12828 | 26599 ft | 444 kts | 26° |
| 2026-05-04 12:21 | 2.73231 | 104.14098 | 26832 ft | 446 kts | 26° |
| 2026-05-04 12:21 | 2.76072 | 104.15378 | 27063 ft | 448 kts | 26° |
| 2026-05-04 12:21 | 2.78944 | 104.16671 | 27293 ft | 450 kts | 26° |
| 2026-05-04 12:21 | 2.81801 | 104.17955 | 27534 ft | 452 kts | 26° |
| 2026-05-04 12:22 | 2.84709 | 104.19265 | 27782 ft | 453 kts | 26° |
| 2026-05-04 12:22 | 2.87592 | 104.20564 | 28012 ft | 454 kts | 26° |
| 2026-05-04 12:22 | 2.90492 | 104.21870 | 28236 ft | 455 kts | 26° |
| 2026-05-04 12:22 | 2.93383 | 104.23172 | 28447 ft | 457 kts | 26° |
| 2026-05-04 12:23 | 2.96283 | 104.24480 | 28658 ft | 459 kts | 26° |
| 2026-05-04 12:23 | 2.99219 | 104.25801 | 28892 ft | 459 kts | 26° |
| 2026-05-04 12:23 | 3.02151 | 104.27121 | 29192 ft | 459 kts | 26° |
| 2026-05-04 12:23 | 3.05007 | 104.28526 | 29502 ft | 457 kts | 29° |
| 2026-05-04 12:24 | 3.07786 | 104.30100 | 29804 ft | 456 kts | 32° |
| 2026-05-04 12:24 | 3.10482 | 104.31791 | 30104 ft | 455 kts | 34° |
| 2026-05-04 12:24 | 3.13161 | 104.33502 | 30390 ft | 455 kts | 34° |
| 2026-05-04 12:24 | 3.15865 | 104.35198 | 30689 ft | 454 kts | 33° |
| 2026-05-04 12:25 | 3.18548 | 104.36859 | 30988 ft | 454 kts | 33° |
| 2026-05-04 12:25 | 3.21249 | 104.38529 | 31281 ft | 453 kts | 33° |
| 2026-05-04 12:25 | 3.23911 | 104.40177 | 31579 ft | 452 kts | 33° |
| 2026-05-04 12:25 | 3.26608 | 104.41850 | 31877 ft | 451 kts | 33° |
| 2026-05-04 12:26 | 3.29273 | 104.43504 | 32165 ft | 450 kts | 33° |
| 2026-05-04 12:26 | 3.31930 | 104.45158 | 32447 ft | 449 kts | 33° |
| 2026-05-04 12:26 | 3.34587 | 104.46810 | 32729 ft | 448 kts | 33° |
| 2026-05-04 12:26 | 3.37255 | 104.48471 | 33016 ft | 447 kts | 33° |
| 2026-05-04 12:27 | 3.39905 | 104.50118 | 33293 ft | 447 kts | 33° |
| 2026-05-04 12:27 | 3.42634 | 104.51816 | 33542 ft | 447 kts | 33° |
| 2026-05-04 12:27 | 3.45296 | 104.53469 | 33756 ft | 448 kts | 33° |
| 2026-05-04 12:27 | 3.47965 | 104.55121 | 33950 ft | 448 kts | 33° |
| 2026-05-04 12:28 | 3.50651 | 104.56784 | 34176 ft | 449 kts | 33° |
| 2026-05-04 12:28 | 3.53306 | 104.58431 | 34388 ft | 449 kts | 33° |
| 2026-05-04 12:28 | 3.55942 | 104.60068 | 34581 ft | 449 kts | 33° |
| 2026-05-04 12:28 | 3.58615 | 104.61729 | 34786 ft | 449 kts | 33° |
| 2026-05-04 12:29 | 3.63929 | 104.65035 | 34833 ft | 449 kts | 33° |
| 2026-05-04 12:29 | 3.69256 | 104.68373 | 34845 ft | 449 kts | 33° |
| 2026-05-04 12:30 | 3.74586 | 104.71704 | 34846 ft | 449 kts | 33° |
| 2026-05-04 12:30 | 3.79968 | 104.75055 | 34844 ft | 449 kts | 33° |
| 2026-05-04 12:31 | 3.85328 | 104.78389 | 34847 ft | 451 kts | 33° |
| 2026-05-04 12:31 | 3.90741 | 104.81756 | 34847 ft | 450 kts | 33° |
| 2026-05-04 12:32 | 3.98725 | 104.86725 | 34847 ft | 449 kts | 33° |
| 2026-05-04 12:33 | 4.04075 | 104.90055 | 34847 ft | 449 kts | 33° |
| 2026-05-04 12:33 | 4.09367 | 104.93352 | 34848 ft | 450 kts | 33° |
| 2026-05-04 12:34 | 4.14713 | 104.96669 | 34848 ft | 450 kts | 33° |
| 2026-05-04 12:34 | 4.20051 | 104.99985 | 34848 ft | 450 kts | 33° |
| 2026-05-04 12:35 | 4.25411 | 105.03309 | 34849 ft | 450 kts | 33° |
| 2026-05-04 12:35 | 4.30750 | 105.06620 | 34849 ft | 451 kts | 33° |
| 2026-05-04 12:36 | 4.36112 | 105.09950 | 34848 ft | 450 kts | 33° |
| 2026-05-04 12:36 | 4.41449 | 105.13267 | 34849 ft | 450 kts | 33° |
| 2026-05-04 12:37 | 4.46743 | 105.16558 | 34849 ft | 450 kts | 33° |
| 2026-05-04 12:37 | 4.52079 | 105.19877 | 34848 ft | 450 kts | 33° |
| 2026-05-04 12:38 | 4.57446 | 105.23215 | 34850 ft | 451 kts | 33° |
| 2026-05-04 12:38 | 4.62784 | 105.26537 | 34849 ft | 451 kts | 33° |
| 2026-05-04 12:39 | 4.68131 | 105.29866 | 34850 ft | 451 kts | 33° |
| 2026-05-04 12:39 | 4.73486 | 105.33202 | 34850 ft | 450 kts | 33° |
| 2026-05-04 12:40 | 4.78782 | 105.36503 | 34855 ft | 450 kts | 33° |
| 2026-05-04 12:40 | 4.84118 | 105.39871 | 34859 ft | 450 kts | 34° |
| 2026-05-04 12:41 | 4.89401 | 105.43310 | 34857 ft | 450 kts | 34° |
| 2026-05-04 12:41 | 4.94663 | 105.46742 | 34857 ft | 450 kts | 34° |
| 2026-05-04 12:42 | 4.99919 | 105.50168 | 34862 ft | 450 kts | 34° |
| 2026-05-04 12:42 | 5.05201 | 105.53608 | 34858 ft | 450 kts | 34° |
| 2026-05-04 12:43 | 5.10452 | 105.57027 | 34859 ft | 450 kts | 34° |
| 2026-05-04 12:43 | 5.15716 | 105.60438 | 34859 ft | 450 kts | 34° |
| 2026-05-04 12:44 | 5.20980 | 105.63854 | 34853 ft | 450 kts | 34° |
| 2026-05-04 12:44 | 5.26318 | 105.67341 | 34851 ft | 450 kts | 34° |
| 2026-05-04 12:45 | 5.31588 | 105.70801 | 34848 ft | 450 kts | 34° |
| 2026-05-04 12:45 | 5.36828 | 105.74228 | 34849 ft | 450 kts | 34° |
| 2026-05-04 12:46 | 5.42111 | 105.77676 | 34851 ft | 450 kts | 34° |
| 2026-05-04 12:46 | 5.47375 | 105.81110 | 34849 ft | 450 kts | 34° |
| 2026-05-04 12:47 | 5.52634 | 105.84541 | 34850 ft | 449 kts | 34° |
| 2026-05-04 12:47 | 5.57902 | 105.87978 | 34849 ft | 450 kts | 34° |
| 2026-05-04 12:48 | 5.63176 | 105.91421 | 34850 ft | 450 kts | 34° |
| 2026-05-04 12:48 | 5.68417 | 105.94842 | 34850 ft | 449 kts | 34° |
| 2026-05-04 12:49 | 5.73681 | 105.98278 | 34848 ft | 449 kts | 34° |
| 2026-05-04 12:49 | 5.78907 | 106.01690 | 34847 ft | 449 kts | 34° |
| 2026-05-04 12:50 | 5.84168 | 106.05126 | 34847 ft | 448 kts | 34° |
| 2026-05-04 12:50 | 5.89440 | 106.08572 | 34848 ft | 449 kts | 34° |
| 2026-05-04 12:51 | 5.94688 | 106.12000 | 34848 ft | 449 kts | 34° |
| 2026-05-04 12:51 | 5.99945 | 106.15436 | 34848 ft | 448 kts | 34° |
| 2026-05-04 12:52 | 6.05198 | 106.18870 | 34848 ft | 448 kts | 35° |
| 2026-05-04 12:52 | 6.10461 | 106.22313 | 34848 ft | 448 kts | 34° |
| 2026-05-04 12:53 | 6.15689 | 106.25714 | 34849 ft | 448 kts | 34° |
| 2026-05-04 12:53 | 6.20936 | 106.29133 | 34849 ft | 449 kts | 34° |
| 2026-05-04 12:54 | 6.26212 | 106.32582 | 34850 ft | 449 kts | 35° |
| 2026-05-04 12:54 | 6.31458 | 106.36013 | 34850 ft | 449 kts | 35° |
| 2026-05-04 12:55 | 6.36736 | 106.39471 | 34852 ft | 449 kts | 35° |
| 2026-05-04 12:55 | 6.41970 | 106.42897 | 34857 ft | 449 kts | 35° |
| 2026-05-04 12:56 | 6.47233 | 106.46347 | 34855 ft | 449 kts | 35° |
| 2026-05-04 12:56 | 6.52461 | 106.49773 | 34857 ft | 450 kts | 35° |
| 2026-05-04 12:57 | 6.57728 | 106.53226 | 34860 ft | 450 kts | 35° |
| 2026-05-04 12:57 | 6.63032 | 106.56704 | 34863 ft | 450 kts | 35° |
| 2026-05-04 12:58 | 6.68284 | 106.60149 | 34867 ft | 450 kts | 35° |
| 2026-05-04 12:58 | 6.73538 | 106.63598 | 34867 ft | 450 kts | 35° |
| 2026-05-04 12:59 | 6.78810 | 106.67073 | 34868 ft | 451 kts | 35° |
| 2026-05-04 12:59 | 6.84043 | 106.70534 | 34869 ft | 451 kts | 35° |
| 2026-05-04 13:00 | 6.89335 | 106.74013 | 34869 ft | 451 kts | 35° |
| 2026-05-04 13:00 | 6.94759 | 106.77250 | 34869 ft | 453 kts | 27° |
| 2026-05-04 13:01 | 7.00787 | 106.79369 | 34868 ft | 457 kts | 15° |
| 2026-05-04 13:01 | 7.07154 | 106.80134 | 34864 ft | 460 kts | 2° |
| 2026-05-04 13:02 | 7.13706 | 106.79662 | 34864 ft | 462 kts | 355° |
| 2026-05-04 13:02 | 7.20132 | 106.78953 | 34858 ft | 462 kts | 355° |
| 2026-05-04 13:03 | 7.26528 | 106.78256 | 34852 ft | 463 kts | 356° |
| 2026-05-04 13:03 | 7.32966 | 106.77569 | 34848 ft | 463 kts | 355° |
| 2026-05-04 13:04 | 7.39426 | 106.76883 | 34848 ft | 463 kts | 356° |
| 2026-05-04 13:04 | 7.45881 | 106.76200 | 34847 ft | 463 kts | 355° |
| 2026-05-04 13:05 | 7.52327 | 106.75518 | 34848 ft | 463 kts | 355° |
| 2026-05-04 13:05 | 7.58711 | 106.74844 | 34849 ft | 463 kts | 355° |
| 2026-05-04 13:06 | 7.65164 | 106.74159 | 34848 ft | 463 kts | 355° |
| 2026-05-04 13:06 | 7.71578 | 106.73480 | 34848 ft | 463 kts | 356° |
| 2026-05-04 13:07 | 7.78022 | 106.72798 | 34847 ft | 463 kts | 356° |
| 2026-05-04 13:07 | 7.84426 | 106.72119 | 34849 ft | 463 kts | 355° |
| 2026-05-04 13:08 | 7.90871 | 106.71439 | 34848 ft | 462 kts | 355° |
| 2026-05-04 13:08 | 7.97297 | 106.70755 | 34852 ft | 463 kts | 355° |
| 2026-05-04 13:09 | 8.03740 | 106.70071 | 34846 ft | 463 kts | 355° |
| 2026-05-04 13:09 | 8.10199 | 106.69388 | 34852 ft | 463 kts | 355° |
| 2026-05-04 13:10 | 8.16640 | 106.68705 | 34857 ft | 463 kts | 355° |
| 2026-05-04 13:10 | 8.23144 | 106.68017 | 34862 ft | 463 kts | 355° |
| 2026-05-04 13:11 | 8.29601 | 106.67332 | 34862 ft | 463 kts | 355° |
| 2026-05-04 13:11 | 8.36008 | 106.66650 | 34863 ft | 463 kts | 355° |
| 2026-05-04 13:12 | 8.42449 | 106.65965 | 34865 ft | 463 kts | 355° |
| 2026-05-04 13:12 | 8.48891 | 106.65280 | 34864 ft | 463 kts | 355° |
| 2026-05-04 13:13 | 8.55285 | 106.64597 | 34865 ft | 463 kts | 355° |
| 2026-05-04 13:13 | 8.61704 | 106.63913 | 34863 ft | 462 kts | 355° |
| 2026-05-04 13:14 | 8.68187 | 106.63455 | 34861 ft | 460 kts | 1° |
| 2026-05-04 13:14 | 8.74606 | 106.63702 | 34862 ft | 459 kts | 7° |
| 2026-05-04 13:15 | 8.80938 | 106.64661 | 34867 ft | 458 kts | 13° |
| 2026-05-04 13:15 | 8.87185 | 106.66189 | 34867 ft | 457 kts | 16° |
| 2026-05-04 13:16 | 8.93387 | 106.67787 | 34867 ft | 458 kts | 16° |
| 2026-05-04 13:16 | 8.99611 | 106.69382 | 34869 ft | 458 kts | 15° |
| 2026-05-04 13:17 | 9.05809 | 106.70966 | 34870 ft | 458 kts | 16° |
| 2026-05-04 13:17 | 9.11996 | 106.72546 | 34866 ft | 458 kts | 15° |
| 2026-05-04 13:18 | 9.18198 | 106.74123 | 34858 ft | 458 kts | 15° |
| 2026-05-04 13:18 | 9.24428 | 106.75709 | 34854 ft | 458 kts | 15° |
| 2026-05-04 13:19 | 9.30611 | 106.77290 | 34855 ft | 458 kts | 15° |
| 2026-05-04 13:19 | 9.36800 | 106.78872 | 34855 ft | 457 kts | 15° |
| 2026-05-04 13:20 | 9.42990 | 106.80454 | 34851 ft | 457 kts | 15° |
| 2026-05-04 13:20 | 9.49184 | 106.82042 | 34851 ft | 457 kts | 15° |
| 2026-05-04 13:21 | 9.55413 | 106.83637 | 34849 ft | 458 kts | 15° |
| 2026-05-04 13:21 | 9.61615 | 106.85226 | 34850 ft | 458 kts | 15° |
| 2026-05-04 13:22 | 9.67827 | 106.86812 | 34851 ft | 458 kts | 15° |
| 2026-05-04 13:22 | 9.74037 | 106.88387 | 34849 ft | 457 kts | 15° |
| 2026-05-04 13:23 | 9.80228 | 106.89958 | 34851 ft | 457 kts | 15° |
| 2026-05-04 13:23 | 9.86422 | 106.91533 | 34854 ft | 457 kts | 15° |
| 2026-05-04 13:24 | 9.92616 | 106.93107 | 34864 ft | 457 kts | 15° |
| 2026-05-04 13:24 | 9.98820 | 106.94687 | 34868 ft | 457 kts | 15° |
| 2026-05-04 13:25 | 10.08126 | 106.97060 | 34867 ft | 458 kts | 15° |
| 2026-05-04 13:25 | 10.14344 | 106.98640 | 34865 ft | 458 kts | 15° |
| 2026-05-04 13:26 | 10.20569 | 107.00220 | 34866 ft | 458 kts | 14° |
| 2026-05-04 13:26 | 10.26792 | 107.01805 | 34865 ft | 458 kts | 15° |
| 2026-05-04 13:27 | 10.33015 | 107.03392 | 34862 ft | 459 kts | 15° |
| 2026-05-04 13:27 | 10.39217 | 107.04977 | 34861 ft | 460 kts | 14° |
| 2026-05-04 13:28 | 10.45466 | 107.06576 | 34863 ft | 461 kts | 14° |
| 2026-05-04 13:28 | 10.51783 | 107.08186 | 34867 ft | 461 kts | 14° |
| 2026-05-04 13:29 | 10.58061 | 107.09767 | 34872 ft | 462 kts | 14° |
| 2026-05-04 13:29 | 10.64338 | 107.11350 | 34877 ft | 462 kts | 14° |
| 2026-05-04 13:30 | 10.70635 | 107.12942 | 34883 ft | 463 kts | 14° |
| 2026-05-04 13:30 | 10.76944 | 107.14539 | 34886 ft | 462 kts | 14° |
| 2026-05-04 13:31 | 10.83248 | 107.16137 | 34887 ft | 463 kts | 14° |
| 2026-05-04 13:31 | 10.89507 | 107.17777 | 34892 ft | 464 kts | 16° |
| 2026-05-04 13:32 | 10.95641 | 107.19986 | 34889 ft | 465 kts | 23° |
| 2026-05-04 13:32 | 11.01472 | 107.22852 | 34885 ft | 464 kts | 28° |
| 2026-05-04 13:33 | 11.07173 | 107.25948 | 34878 ft | 463 kts | 28° |
| 2026-05-04 13:33 | 11.12936 | 107.29067 | 34882 ft | 463 kts | 28° |
| 2026-05-04 13:34 | 11.18671 | 107.32149 | 34881 ft | 462 kts | 28° |
| 2026-05-04 13:34 | 11.24400 | 107.35220 | 34878 ft | 462 kts | 28° |
| 2026-05-04 13:35 | 11.32955 | 107.39816 | 34886 ft | 462 kts | 28° |
| 2026-05-04 13:36 | 11.38682 | 107.42899 | 34894 ft | 462 kts | 28° |
| 2026-05-04 13:36 | 11.44398 | 107.45981 | 34901 ft | 461 kts | 28° |
| 2026-05-04 13:37 | 11.50056 | 107.49032 | 34903 ft | 459 kts | 28° |
| 2026-05-04 13:37 | 11.55729 | 107.52095 | 34916 ft | 459 kts | 28° |
| 2026-05-04 13:38 | 11.61414 | 107.55164 | 34937 ft | 461 kts | 28° |
| 2026-05-04 13:38 | 11.67097 | 107.58241 | 34962 ft | 459 kts | 27° |
| 2026-05-04 13:39 | 11.72851 | 107.61348 | 34991 ft | 464 kts | 27° |
| 2026-05-04 13:39 | 11.78577 | 107.64448 | 35021 ft | 465 kts | 27° |
| 2026-05-04 13:40 | 11.84310 | 107.67568 | 35029 ft | 464 kts | 27° |
| 2026-05-04 13:40 | 11.90050 | 107.70702 | 35031 ft | 462 kts | 27° |
| 2026-05-04 13:41 | 11.95726 | 107.73782 | 35025 ft | 460 kts | 27° |
| 2026-05-04 13:41 | 12.01430 | 107.76873 | 35016 ft | 461 kts | 27° |
| 2026-05-04 13:42 | 12.09990 | 107.81512 | 35056 ft | 463 kts | 27° |
| 2026-05-04 13:42 | 12.15742 | 107.84620 | 35079 ft | 463 kts | 26° |
| 2026-05-04 13:43 | 12.21439 | 107.87701 | 35082 ft | 462 kts | 26° |
| 2026-05-04 13:43 | 12.27182 | 107.90816 | 35089 ft | 462 kts | 26° |
| 2026-05-04 13:44 | 12.32882 | 107.93913 | 35051 ft | 461 kts | 26° |
| 2026-05-04 13:44 | 12.38557 | 107.96997 | 35026 ft | 461 kts | 26° |
| 2026-05-04 13:45 | 12.44272 | 108.00106 | 35000 ft | 461 kts | 26° |
| 2026-05-04 13:45 | 12.49972 | 108.03210 | 34989 ft | 462 kts | 26° |
| 2026-05-04 13:46 | 12.55666 | 108.06311 | 34981 ft | 462 kts | 26° |
| 2026-05-04 13:46 | 12.61475 | 108.09234 | 34977 ft | 460 kts | 20° |
| 2026-05-04 13:47 | 12.67540 | 108.11279 | 34982 ft | 458 kts | 12° |
| 2026-05-04 13:47 | 12.73843 | 108.12389 | 34978 ft | 455 kts | 3° |
| 2026-05-04 13:48 | 12.80198 | 108.12672 | 34979 ft | 454 kts | 359° |
| 2026-05-04 13:48 | 12.86545 | 108.12804 | 34975 ft | 454 kts | 359° |
| 2026-05-04 13:49 | 12.92963 | 108.12946 | 34973 ft | 454 kts | 359° |
| 2026-05-04 13:49 | 12.99308 | 108.13095 | 34975 ft | 454 kts | 359° |
| 2026-05-04 13:50 | 13.05656 | 108.13245 | 34975 ft | 454 kts | 359° |
| 2026-05-04 13:50 | 13.11985 | 108.13399 | 34978 ft | 454 kts | 359° |
| 2026-05-04 13:51 | 13.18372 | 108.13552 | 34982 ft | 454 kts | 359° |
| 2026-05-04 13:51 | 13.24713 | 108.13706 | 34985 ft | 454 kts | 359° |
| 2026-05-04 13:52 | 13.34231 | 108.13948 | 34992 ft | 454 kts | 359° |
| 2026-05-04 13:53 | 13.40554 | 108.14092 | 34993 ft | 454 kts | 359° |
| 2026-05-04 13:53 | 13.46897 | 108.14230 | 34988 ft | 454 kts | 359° |
| 2026-05-04 13:54 | 13.56438 | 108.14436 | 34980 ft | 454 kts | 359° |
| 2026-05-04 13:55 | 13.65952 | 108.14641 | 34998 ft | 454 kts | 359° |
| 2026-05-04 13:55 | 13.75472 | 108.14848 | 35011 ft | 453 kts | 359° |
| 2026-05-04 13:56 | 13.81791 | 108.14986 | 35025 ft | 454 kts | 359° |
| 2026-05-04 13:57 | 13.91369 | 108.15186 | 35034 ft | 454 kts | 358° |
| 2026-05-04 13:58 | 14.04048 | 108.15454 | 35050 ft | 453 kts | 358° |
| 2026-05-04 13:58 | 14.13606 | 108.15656 | 35069 ft | 454 kts | 358° |
| 2026-05-04 13:59 | 14.19998 | 108.15795 | 35086 ft | 454 kts | 358° |
| 2026-05-04 14:00 | 14.29551 | 108.16000 | 35085 ft | 456 kts | 358° |
| 2026-05-04 14:00 | 14.39126 | 108.16205 | 35085 ft | 456 kts | 358° |
| 2026-05-04 14:01 | 14.45545 | 108.16344 | 35086 ft | 456 kts | 358° |
| 2026-05-04 14:02 | 14.55108 | 108.16554 | 35098 ft | 456 kts | 358° |
| 2026-05-04 14:02 | 14.61517 | 108.16696 | 35112 ft | 456 kts | 358° |
| 2026-05-04 14:03 | 14.67964 | 108.16838 | 35141 ft | 457 kts | 358° |
| 2026-05-04 14:03 | 14.71157 | 108.16908 | 34926 ft | 454 kts | 358° |
| 2026-05-04 14:03 | 14.74343 | 108.16979 | 33822 ft | 457 kts | 358° |
| 2026-05-04 14:03 | 14.77516 | 108.17046 | 32139 ft | 465 kts | 358° |
| 2026-05-04 14:04 | 14.84113 | 108.17187 | 28415 ft | 481 kts | 359° |
| 2026-05-04 14:04 | 14.87436 | 108.17259 | 27142 ft | 472 kts | 359° |
| 2026-05-04 14:04 | 14.90671 | 108.17333 | 26215 ft | 459 kts | 359° |
| 2026-05-04 14:05 | 14.96927 | 108.17477 | 24729 ft | 435 kts | 360° |
| 2026-05-04 14:05 | 14.99977 | 108.17545 | 24207 ft | 428 kts | 360° |
| 2026-05-04 14:05 | 15.02938 | 108.17612 | 23688 ft | 422 kts | 0° |
| 2026-05-04 14:06 | 15.05877 | 108.17586 | 23174 ft | 416 kts | 354° |
| 2026-05-04 14:06 | 15.08742 | 108.17190 | 22659 ft | 411 kts | 347° |
| 2026-05-04 14:06 | 15.11506 | 108.16419 | 22161 ft | 405 kts | 340° |
| 2026-05-04 14:06 | 15.14151 | 108.15437 | 21697 ft | 404 kts | 338° |
| 2026-05-04 14:07 | 15.16801 | 108.14401 | 21204 ft | 402 kts | 338° |
| 2026-05-04 14:07 | 15.19422 | 108.13374 | 20730 ft | 400 kts | 338° |
| 2026-05-04 14:07 | 15.22027 | 108.12360 | 20251 ft | 399 kts | 338° |
| 2026-05-04 14:07 | 15.24611 | 108.11361 | 19789 ft | 397 kts | 338° |
| 2026-05-04 14:08 | 15.27232 | 108.10352 | 19306 ft | 395 kts | 339° |
| 2026-05-04 14:08 | 15.29804 | 108.09363 | 18824 ft | 393 kts | 339° |
| 2026-05-04 14:08 | 15.32332 | 108.08390 | 18357 ft | 382 kts | 339° |
| 2026-05-04 14:08 | 15.34845 | 108.07421 | 17789 ft | 386 kts | 339° |
| 2026-05-04 14:09 | 15.39863 | 108.05513 | 16606 ft | 379 kts | 341° |
| 2026-05-04 14:09 | 15.42390 | 108.04760 | 15909 ft | 376 kts | 346° |
| 2026-05-04 14:10 | 15.47518 | 108.03838 | 14493 ft | 368 kts | 352° |
| 2026-05-04 14:10 | 15.50051 | 108.03477 | 13802 ft | 365 kts | 352° |
| 2026-05-04 14:10 | 15.52592 | 108.03133 | 13074 ft | 362 kts | 356° |
| 2026-05-04 14:10 | 15.55062 | 108.03387 | 12275 ft | 356 kts | 20° |
| 2026-05-04 14:11 | 15.57149 | 108.04669 | 11385 ft | 350 kts | 43° |
| 2026-05-04 14:11 | 15.59426 | 108.09020 | 9597 ft | 348 kts | 79° |
| 2026-05-04 14:11 | 15.59812 | 108.11458 | 8770 ft | 346 kts | 81° |
| 2026-05-04 14:12 | 15.60177 | 108.13919 | 8191 ft | 336 kts | 81° |
| 2026-05-04 14:12 | 15.60490 | 108.16281 | 7727 ft | 325 kts | 82° |
| 2026-05-04 14:12 | 15.61086 | 108.20804 | 6698 ft | 308 kts | 82° |
| 2026-05-04 14:13 | 15.61405 | 108.22954 | 6263 ft | 298 kts | 76° |
| 2026-05-04 14:13 | 15.62318 | 108.24809 | 5974 ft | 283 kts | 46° |
| 2026-05-04 14:13 | 15.63962 | 108.25797 | 5713 ft | 270 kts | 14° |
| 2026-05-04 14:13 | 15.65794 | 108.25822 | 5382 ft | 259 kts | 351° |
| 2026-05-04 14:14 | 15.67506 | 108.25493 | 5137 ft | 244 kts | 351° |
| 2026-05-04 14:14 | 15.70731 | 108.24931 | 5043 ft | 228 kts | 353° |
| 2026-05-04 14:14 | 15.72311 | 108.24674 | 5033 ft | 229 kts | 351° |
| 2026-05-04 14:15 | 15.75466 | 108.24061 | 5156 ft | 229 kts | 352° |
| 2026-05-04 14:15 | 15.78423 | 108.23569 | 5014 ft | 197 kts | 353° |
| 2026-05-04 14:16 | 15.80941 | 108.23206 | 4573 ft | 178 kts | 354° |
| 2026-05-04 14:16 | 15.82176 | 108.23038 | 4139 ft | 179 kts | 354° |
| 2026-05-04 14:17 | 15.84612 | 108.22679 | 3430 ft | 168 kts | 354° |
| 2026-05-04 14:17 | 15.85742 | 108.22533 | 3161 ft | 158 kts | 355° |
| 2026-05-04 14:17 | 15.87914 | 108.22239 | 2759 ft | 155 kts | 353° |
| 2026-05-04 14:18 | 15.88973 | 108.22069 | 2584 ft | 155 kts | 353° |
| 2026-05-04 14:18 | 15.91115 | 108.21726 | 2196 ft | 154 kts | 352° |
| 2026-05-04 14:19 | 15.93257 | 108.21427 | 1800 ft | 153 kts | 353° |
| 2026-05-04 14:19 | 15.94315 | 108.21270 | 1593 ft | 153 kts | 352° |
| 2026-05-04 14:19 | 15.95375 | 108.21113 | 1335 ft | 152 kts | 354° |
| 2026-05-04 14:19 | 15.96421 | 108.20962 | 1090 ft | 151 kts | 353° |
| 2026-05-04 14:20 | 15.97473 | 108.20814 | 921 ft | 151 kts | 353° |
| 2026-05-04 14:20 | 15.98521 | 108.20652 | 831 ft | 151 kts | 354° |
| 2026-05-04 14:20 | 15.99574 | 108.20515 | 658 ft | 151 kts | 354° |
| 2026-05-04 14:21 | 16.01675 | 108.20219 | 310 ft | 150 kts | 353° |
| 2026-05-04 14:21 | 16.02703 | 108.20081 | 170 ft | 150 kts | 354° |
| 2026-05-04 14:21 | 16.03739 | 108.19933 | 67 ft | 143 kts | 353° |
| 2026-05-04 14:21 | 16.04616 | 108.19804 | 58 ft | 95 kts | 352° |
| 2026-05-04 14:22 | 16.04978 | 108.19749 | 56 ft | 8 kts | 343° |
| 2026-05-04 14:22 | 16.04990 | 108.19745 | 56 ft | 7 kts | 342° |
| 2026-05-04 14:22 | 16.05073 | 108.19714 | 55 ft | 14 kts | 338° |
| 2026-05-04 14:22 | 16.05170 | 108.19669 | 55 ft | 16 kts | 335° |
| 2026-05-04 14:23 | 16.05399 | 108.19595 | 55 ft | 17 kts | 351° |
| 2026-05-04 14:23 | 16.05524 | 108.19577 | 55 ft | 16 kts | 352° |
| 2026-05-04 14:23 | 16.05566 | 108.19571 | 55 ft | 0 kts | 354° |
| 2026-05-04 14:24 | 16.05591 | 108.19574 | 55 ft | 5 kts | 25° |
| 2026-05-04 14:24 | 16.05635 | 108.19611 | 53 ft | 10 kts | 41° |
| 2026-05-04 14:24 | 16.05700 | 108.19671 | 51 ft | 13 kts | 52° |
| 2026-05-04 14:24 | 16.05731 | 108.19768 | 51 ft | 14 kts | 83° |
| 2026-05-04 14:25 | 16.05745 | 108.19878 | 49 ft | 16 kts | 81° |
| 2026-05-04 14:25 | 16.05729 | 108.20042 | 47 ft | 6 kts | 165° |
| 2026-05-04 14:25 | 16.05698 | 108.20052 | 47 ft | 4 kts | 152° |
| 2026-05-04 14:26 | 16.05688 | 108.20070 | 46 ft | 7 kts | 100° |
| 2026-05-04 14:26 | 16.05692 | 108.20129 | 46 ft | 6 kts | 81° |
| 2026-05-04 14:26 | 16.05693 | 108.20133 | 46 ft | 0 kts | 81° |